FIG weather

Public forecast

Using degrees Fahrenheit for public forecast. Weather courtesy of forecast.io.

Current aviation weather report (METAR) for Clearfield Lawrence Airport

Retrieved 2020/08/15 08:54 UTC (37 minutes ago):

KFIG 150854Z AUTO 35004KT 10SM CLR 14/13 A3003 RMK AO2 SLP160 T01440128 58003

Closest aviation forecast (TAF) to Clearfield Lawrence Airport

Closest forecast is DuBois Regional Airport, 23.3 nm (43.2 km) WNW. Retrieved 2020/08/15 06:22 UTC (3 hours ago):

TAF KDUJ 150520Z 1506/1606 09005KT P6SM BKN200 FM151700 13005KT P6SM VCSH BKN050 FM160000 13005KT P6SM BKN050